»·PEaware :: AAL2671 KPHX-KSAN

AAL2671 :: KPHX-KSAN

FLIGHT INFORMATION

Flight Status: Arrived
Operator:
American Airlines
More flights by this operator :: More flights under this callsign
Pilot: John C. (18682)
Aircraft: BOEING 737-800
(B738)
More flights by this aircraft type
Origin: KPHX Phoenix Sky Harbor Intl
United States
Destination: KSAN San Diego Intl-Lindbergh
United States
More flights between these airports :: More routes between these airports
Route: FYRBD1 MOHAK J2 HOGGZ LUCKI1
File this flight plan on PilotEdge
Remarks:
Altitude:
(Current/Filed)
28,000ft
Speed:
(Current/Filed)
471kts
Departed: 01-Aug-20 12:24 PM
Arrived: 01-Aug-20 01:13 PM
Distance/Time
Traveled:
264nm/0:49
Distance/Time
To Go:
Arrived

Flight Plot

Page will automatically refresh every two minutes.


Map Options




Map Legend


Flown Route
Filed Route
Departure Airport
Arrival Airport
Navaid (VOR, NDB)
Fix

Horizontal Profiles

Position Reports

Time Latitude Longitude Heading Altitude Ground
Speed
01-Aug-20 11:57 33.437857 -111.997380 89 1135ft 0kts
01-Aug-20 11:58 33.437857 -111.997380 89 1135ft 0kts
01-Aug-20 11:59 33.437857 -111.997380 89 1135ft 0kts
01-Aug-20 11:59 33.437857 -111.997380 89 1135ft 0kts
01-Aug-20 12:00 33.437857 -111.997380 89 1135ft 0kts
01-Aug-20 12:02 33.437857 -111.997380 89 1135ft 0kts
01-Aug-20 12:02 33.437857 -111.997380 90 1135ft 0kts
01-Aug-20 12:03 33.437857 -111.997380 90 1135ft 0kts
01-Aug-20 12:04 33.437857 -111.997380 90 1135ft 0kts
01-Aug-20 12:05 33.437857 -111.997380 90 1135ft 0kts
01-Aug-20 12:06 33.437857 -111.997380 90 1135ft 0kts
01-Aug-20 12:07 33.437857 -111.997380 90 1135ft 0kts
01-Aug-20 12:08 33.437857 -111.997381 90 1135ft 0kts
01-Aug-20 12:09 33.437740 -111.997800 24 1134ft 2kts
01-Aug-20 12:10 33.437582 -111.997826 359 1134ft 0kts
01-Aug-20 12:11 33.437582 -111.997826 359 1134ft 0kts
01-Aug-20 12:12 33.438405 -111.997817 0 1136ft 2kts
01-Aug-20 12:13 33.438417 -111.997817 0 1136ft 0kts
01-Aug-20 12:14 33.438417 -111.997817 0 1136ft 0kts
01-Aug-20 12:15 33.438757 -111.997915 329 1136ft 8kts
01-Aug-20 12:16 33.439042 -112.002522 269 1132ft 20kts
01-Aug-20 12:17 33.439019 -112.009039 269 1129ft 20kts
01-Aug-20 12:18 33.439022 -112.016511 270 1126ft 26kts
01-Aug-20 12:19 33.439028 -112.024680 270 1119ft 24kts
01-Aug-20 12:20 33.439867 -112.029658 358 1116ft 0kts
01-Aug-20 12:21 33.439867 -112.029658 358 1116ft 0kts
01-Aug-20 12:22 33.440855 -112.027359 91 1118ft 38kts
01-Aug-20 12:23 33.441088 -111.980088 88 1883ft 192kts
01-Aug-20 12:24 33.438128 -111.909311 96 3705ft 245kts
01-Aug-20 12:25 33.400354 -111.846097 168 6747ft 257kts
01-Aug-20 12:26 33.352372 -111.893826 270 9670ft 259kts
01-Aug-20 12:27 33.356898 -111.987452 263 11036ft 328kts
01-Aug-20 12:28 33.315401 -112.093636 235 12922ft 368kts
01-Aug-20 12:29 33.253690 -112.194259 235 15485ft 381kts
01-Aug-20 12:30 33.189750 -112.298132 235 17893ft 394kts
01-Aug-20 12:31 33.123701 -112.405211 235 20084ft 407kts
01-Aug-20 12:32 33.055387 -112.515731 235 21974ft 422kts
01-Aug-20 12:33 32.985669 -112.631155 243 23715ft 435kts
01-Aug-20 12:34 32.967117 -112.683279 253 24394ft 437kts
01-Aug-20 12:35 32.947444 -112.774945 259 25343ft 442kts
01-Aug-20 12:36 32.924539 -112.920796 261 26709ft 450kts
01-Aug-20 12:37 32.903617 -113.069109 261 27968ft 457kts
01-Aug-20 12:38 32.882667 -113.220956 262 27999ft 472kts
01-Aug-20 12:39 32.861319 -113.375436 262 27999ft 470kts
01-Aug-20 12:40 32.839926 -113.529217 262 27999ft 471kts
01-Aug-20 12:41 32.818345 -113.683082 261 27983ft 471kts
01-Aug-20 12:42 32.796025 -113.835360 261 27972ft 471kts
01-Aug-20 12:43 32.778634 -113.989801 268 27973ft 469kts
01-Aug-20 12:44 32.778639 -114.144465 273 27972ft 468kts
01-Aug-20 12:45 32.784508 -114.299484 276 27971ft 468kts
01-Aug-20 12:46 32.810128 -114.450747 287 27972ft 466kts
01-Aug-20 12:47 32.847220 -114.598240 289 27964ft 465kts
01-Aug-20 12:48 32.876839 -114.746042 274 27955ft 468kts
01-Aug-20 12:49 32.875416 -114.901301 269 27954ft 469kts
01-Aug-20 12:50 32.872090 -115.056744 269 27945ft 467kts
01-Aug-20 12:51 32.868660 -115.205248 269 27933ft 438kts
01-Aug-20 12:52 32.862320 -115.352058 262 27926ft 443kts
01-Aug-20 12:53 32.843433 -115.493047 261 25967ft 424kts
01-Aug-20 12:54 32.821132 -115.630808 259 25402ft 422kts
01-Aug-20 12:55 32.798900 -115.766203 259 22874ft 412kts
01-Aug-20 12:56 32.781803 -115.898791 265 20428ft 399kts
01-Aug-20 12:57 32.771854 -116.028283 265 18053ft 387kts
01-Aug-20 12:58 32.762567 -116.150615 265 16277ft 366kts
01-Aug-20 12:59 32.753463 -116.269821 265 14259ft 352kts
01-Aug-20 13:00 32.744654 -116.381709 265 12570ft 338kts
01-Aug-20 13:01 32.736074 -116.491547 265 11010ft 318kts
01-Aug-20 13:02 32.726555 -116.591911 263 9774ft 289kts
01-Aug-20 13:03 32.717884 -116.684710 264 8230ft 277kts
01-Aug-20 13:04 32.710999 -116.773898 264 6762ft 259kts
01-Aug-20 13:05 32.697141 -116.852092 249 5419ft 226kts
01-Aug-20 13:06 32.676465 -116.922724 260 4532ft 218kts
01-Aug-20 13:07 32.684150 -116.987404 287 3686ft 188kts
01-Aug-20 13:08 32.698719 -117.046607 286 2567ft 178kts
01-Aug-20 13:09 32.711362 -117.098115 287 1555ft 160kts
01-Aug-20 13:10 32.723294 -117.147352 285 707ft 156kts
01-Aug-20 13:11 32.734644 -117.194228 286 24ft 79kts
01-Aug-20 13:12 32.734902 -117.199301 271 20ft 10kts
01-Aug-20 13:13 32.734533 -117.202545 188 20ft 9kts
01-Aug-20 13:14 32.733773 -117.202069 144 20ft 0kts
01-Aug-20 13:15 32.733773 -117.202069 144 20ft 0kts

Navigation Log

Ident Type
Flight plan parsing failed, navigation log unavailable